Time;durP1;ratioP1;P1;durP2;ratioP2;P2;SDS_P1;SDS_P2;PMS_P1;PMS_P2;Temp;Humidity;BMP_temperature;BMP_pressure;BME280_temperature;BME280_humidity;BME280_pressure;Samples;Min_cycle;Max_cycle;Signal;HPM_P1;HPM_P2
2022/01/10 00:00:54;;;;;;;10.02;2.45;;;;;;;;;;4766804;28;20049;-69
2022/01/10 00:03:24;;;;;;;7.55;1.73;;;;;;;;;;4769019;28;20039;-69
2022/01/10 00:05:51;;;;;;;7.75;1.80;;;;;;;;;;4770632;28;20612;-69
2022/01/10 00:08:18;;;;;;;8.20;1.90;;;;;;;;;;4770556;28;21504;-69
2022/01/10 00:10:50;;;;;;;7.25;1.58;;;;;;;;;;4784516;28;20206;-70
2022/01/10 00:13:19;;;;;;;6.18;1.70;;;;;;;;;;4784226;28;20517;-69
2022/01/10 00:15:48;;;;;;;7.32;1.77;;;;;;;;;;4787429;28;20064;-70
2022/01/10 00:18:18;;;;;;;6.70;1.38;;;;;;;;;;4788608;28;20043;-67
2022/01/10 00:20:46;;;;;;;11.02;5.38;;;;;;;;;;4758319;28;20042;-67
2022/01/10 00:23:16;;;;;;;9.50;2.92;;;;;;;;;;4769018;28;20173;-69
2022/01/10 00:25:44;;;;;;;8.88;2.40;;;;;;;;;;4765831;28;20047;-67
2022/01/10 00:28:10;;;;;;;9.02;1.88;;;;;;;;;;4767742;28;22123;-69
2022/01/10 00:30:38;;;;;;;6.65;1.45;;;;;;;;;;4769460;28;20030;-68
2022/01/10 00:33:08;;;;;;;6.15;1.70;;;;;;;;;;4787652;28;20058;-68
2022/01/10 00:35:36;;;;;;;7.82;1.70;;;;;;;;;;4788131;28;20056;-69
2022/01/10 00:38:04;;;;;;;5.05;1.50;;;;;;;;;;4775896;28;20725;-68
2022/01/10 00:40:32;;;;;;;6.88;2.03;;;;;;;;;;4771001;28;20187;-68
2022/01/10 00:42:58;;;;;;;6.72;1.88;;;;;;;;;;4771314;28;21201;-68
2022/01/10 00:45:28;;;;;;;7.55;1.83;;;;;;;;;;4787815;28;20050;-68
2022/01/10 00:47:58;;;;;;;6.90;1.85;;;;;;;;;;4786767;28;20789;-67
2022/01/10 00:50:27;;;;;;;7.90;1.80;;;;;;;;;;4780265;28;21354;-68
2022/01/10 00:52:54;;;;;;;7.88;1.90;;;;;;;;;;4767608;28;21222;-68
2022/01/10 00:55:23;;;;;;;9.25;2.10;;;;;;;;;;4768975;28;22996;-68
2022/01/10 00:57:52;;;;;;;8.93;2.08;;;;;;;;;;4770136;28;20162;-68
2022/01/10 01:00:21;;;;;;;8.40;2.08;;;;;;;;;;4771000;28;20031;-68
2022/01/10 01:02:49;;;;;;;10.45;2.40;;;;;;;;;;4764511;28;20088;-68
2022/01/10 01:05:20;;;;;;;12.30;2.35;;;;;;;;;;4765372;28;20023;-68
2022/01/10 01:07:46;;;;;;;8.23;1.80;;;;;;;;;;4768243;28;20045;-68
2022/01/10 01:13:12;;;;;;;14.25;2.72;;;;;;;;;;4767866;28;20062;-68
2022/01/10 01:16:08;;;;;;;13.15;2.58;;;;;;;;;;4767358;28;20742;-67
2022/01/10 01:24:07;;;;;;;11.63;2.80;;;;;;;;;;4766536;28;20747;-68
2022/01/10 01:26:40;;;;;;;12.75;2.13;;;;;;;;;;4766362;28;20845;-68
2022/01/10 01:29:09;;;;;;;10.82;2.60;;;;;;;;;;4765230;28;20019;-75
2022/01/10 01:32:00;;;;;;;11.18;2.80;;;;;;;;;;4768177;28;21273;-67
2022/01/10 01:34:30;;;;;;;13.88;2.35;;;;;;;;;;4766714;28;20039;-69
2022/01/10 01:36:58;;;;;;;11.40;2.22;;;;;;;;;;4762192;28;20035;-68
2022/01/10 01:39:31;;;;;;;9.13;2.13;;;;;;;;;;4761141;28;20586;-68
2022/01/10 01:42:05;;;;;;;12.05;2.28;;;;;;;;;;4750878;28;20165;-68
2022/01/10 01:44:34;;;;;;;9.85;2.40;;;;;;;;;;4766699;28;20640;-67
2022/01/10 01:47:02;;;;;;;10.27;2.53;;;;;;;;;;4764878;28;20032;-68
2022/01/10 01:49:29;;;;;;;10.10;2.15;;;;;;;;;;4758556;28;20122;-67
2022/01/10 01:51:58;;;;;;;11.02;2.63;;;;;;;;;;4771848;28;21798;-67
2022/01/10 01:54:25;;;;;;;9.20;2.33;;;;;;;;;;4765852;28;20107;-68
2022/01/10 01:56:53;;;;;;;13.52;2.20;;;;;;;;;;4767191;28;20583;-69
2022/01/10 01:59:20;;;;;;;11.38;2.28;;;;;;;;;;4784199;28;20183;-69
2022/01/10 02:01:48;;;;;;;10.80;2.00;;;;;;;;;;4767833;28;22505;-69
2022/01/10 02:04:16;;;;;;;12.65;2.67;;;;;;;;;;4764783;28;20461;-69
2022/01/10 02:06:45;;;;;;;10.27;2.30;;;;;;;;;;4785115;28;20717;-69
2022/01/10 02:09:15;;;;;;;9.68;2.20;;;;;;;;;;4747939;28;20047;-70
2022/01/10 02:11:41;;;;;;;12.35;2.42;;;;;;;;;;4747568;28;21121;-68
2022/01/10 02:14:10;;;;;;;12.43;2.53;;;;;;;;;;4746695;28;20047;-67
2022/01/10 02:16:41;;;;;;;12.38;2.40;;;;;;;;;;4743269;28;20119;-68
2022/01/10 02:19:09;;;;;;;13.15;2.47;;;;;;;;;;4745135;28;20043;-68
2022/01/10 02:21:38;;;;;;;10.82;2.60;;;;;;;;;;4748243;28;20102;-69
2022/01/10 02:24:08;;;;;;;11.25;2.40;;;;;;;;;;4742422;28;20055;-67
2022/01/10 02:26:37;;;;;;;12.13;2.40;;;;;;;;;;4748695;28;20542;-67
2022/01/10 02:29:08;;;;;;;11.18;2.55;;;;;;;;;;4745141;28;20178;-69
2022/01/10 02:31:39;;;;;;;11.20;2.10;;;;;;;;;;4732185;28;20617;-68
2022/01/10 02:34:08;;;;;;;10.07;2.17;;;;;;;;;;4749466;28;20186;-68
2022/01/10 02:36:38;;;;;;;9.93;1.90;;;;;;;;;;4747326;28;20039;-68
2022/01/10 02:39:08;;;;;;;11.18;1.88;;;;;;;;;;4748195;28;20086;-68
2022/01/10 02:41:50;;;;;;;9.23;1.73;;;;;;;;;;4743659;28;20048;-69
2022/01/10 02:44:17;;;;;;;11.25;1.95;;;;;;;;;;4742518;28;20054;-68
2022/01/10 02:46:47;;;;;;;10.75;2.28;;;;;;;;;;4747111;28;20291;-69
2022/01/10 02:49:15;;;;;;;9.70;2.17;;;;;;;;;;4718323;28;20035;-70
2022/01/10 02:51:46;;;;;;;9.98;2.05;;;;;;;;;;4745452;28;20338;-69
2022/01/10 02:54:14;;;;;;;9.23;2.10;;;;;;;;;;4782011;28;20130;-69
2022/01/10 02:56:47;;;;;;;7.40;1.80;;;;;;;;;;4781820;28;20089;-69
2022/01/10 02:59:16;;;;;;;9.68;1.92;;;;;;;;;;4782243;28;20030;-70
2022/01/10 03:01:44;;;;;;;8.98;2.50;;;;;;;;;;4748800;28;20046;-68
2022/01/10 03:04:15;;;;;;;7.40;1.70;;;;;;;;;;4785478;28;20053;-68
2022/01/10 03:06:41;;;;;;;8.73;1.70;;;;;;;;;;4765725;28;20063;-69
2022/01/10 03:09:10;;;;;;;6.38;1.38;;;;;;;;;;4765603;28;20775;-68
2022/01/10 03:11:39;;;;;;;6.93;1.38;;;;;;;;;;4783514;28;20685;-68
2022/01/10 03:14:07;;;;;;;9.23;2.15;;;;;;;;;;4767262;28;21342;-68
2022/01/10 03:16:36;;;;;;;9.75;1.85;;;;;;;;;;4780970;28;20144;-68
2022/01/10 03:19:04;;;;;;;12.52;1.85;;;;;;;;;;4782538;28;20100;-69
2022/01/10 03:21:33;;;;;;;8.95;2.03;;;;;;;;;;4761071;28;20140;-68
2022/01/10 03:24:02;;;;;;;10.68;2.10;;;;;;;;;;4786117;28;21051;-68
2022/01/10 03:26:31;;;;;;;8.98;1.90;;;;;;;;;;4786661;28;20030;-68
2022/01/10 03:29:03;;;;;;;9.35;2.00;;;;;;;;;;4787062;28;20035;-68
2022/01/10 03:31:33;;;;;;;13.95;2.30;;;;;;;;;;4785462;28;20046;-68
2022/01/10 03:34:02;;;;;;;11.23;2.50;;;;;;;;;;4780874;28;20069;-69
2022/01/10 03:36:33;;;;;;;9.82;2.25;;;;;;;;;;4785293;28;20050;-69
2022/01/10 03:39:01;;;;;;;10.57;1.98;;;;;;;;;;4784670;28;20053;-68
2022/01/10 03:41:29;;;;;;;9.70;2.00;;;;;;;;;;4787248;28;20039;-67
2022/01/10 03:44:01;;;;;;;9.57;2.10;;;;;;;;;;4786061;28;20042;-69
2022/01/10 03:46:32;;;;;;;10.43;2.10;;;;;;;;;;4781881;28;20031;-68
2022/01/10 03:49:05;;;;;;;9.80;1.90;;;;;;;;;;4764480;28;20042;-68
2022/01/10 03:51:32;;;;;;;8.02;1.65;;;;;;;;;;4785295;28;20052;-68
2022/01/10 03:54:00;;;;;;;10.38;2.30;;;;;;;;;;4768792;28;20566;-68
2022/01/10 03:56:29;;;;;;;9.10;1.80;;;;;;;;;;4785539;28;20038;-68
2022/01/10 03:58:57;;;;;;;8.82;1.92;;;;;;;;;;4768095;28;20765;-68
2022/01/10 04:01:25;;;;;;;8.20;2.03;;;;;;;;;;4782354;28;20686;-68
2022/01/10 04:03:54;;;;;;;9.27;1.80;;;;;;;;;;4769236;28;20161;-66
2022/01/10 04:06:22;;;;;;;10.32;1.98;;;;;;;;;;4782447;28;20804;-69
2022/01/10 04:08:49;;;;;;;7.57;1.70;;;;;;;;;;4767411;28;20699;-69
2022/01/10 04:11:16;;;;;;;8.98;1.90;;;;;;;;;;4787362;28;20070;-69
2022/01/10 04:13:42;;;;;;;;;;;;;;;;;;4768601;28;20134;-69
2022/01/10 04:16:10;;;;;;;7.85;2.00;;;;;;;;;;4769215;28;19918;-68
2022/01/10 04:18:37;;;;;;;7.30;1.60;;;;;;;;;;4756119;28;20047;-69
2022/01/10 04:21:04;;;;;;;8.60;2.10;;;;;;;;;;4785737;28;20820;-69
2022/01/10 04:23:31;;;;;;;9.48;2.00;;;;;;;;;;4782032;28;20039;-68
2022/01/10 04:25:58;;;;;;;8.13;2.17;;;;;;;;;;4780407;28;21061;-69
2022/01/10 04:28:26;;;;;;;10.07;2.00;;;;;;;;;;4770472;28;22737;-69
2022/01/10 04:30:55;;;;;;;7.60;2.03;;;;;;;;;;4768622;28;20543;-68
2022/01/10 04:33:28;;;;;;;7.13;1.48;;;;;;;;;;4786981;28;20038;-67
2022/01/10 04:35:59;;;;;;;6.25;1.48;;;;;;;;;;4775850;28;20315;-67
2022/01/10 04:38:28;;;;;;;7.22;1.50;;;;;;;;;;4787246;28;20194;-67
2022/01/10 04:40:54;;;;;;;8.85;1.80;;;;;;;;;;4767474;28;20860;-67
2022/01/10 04:43:22;;;;;;;7.47;1.58;;;;;;;;;;4765798;28;21435;-68
2022/01/10 04:45:50;;;;;;;8.70;1.83;;;;;;;;;;4784281;28;20833;-67
2022/01/10 04:48:18;;;;;;;7.85;1.70;;;;;;;;;;4769416;28;21761;-67
2022/01/10 04:53:29;;;;;;;8.02;1.75;;;;;;;;;;4784925;28;20763;-67
2022/01/10 04:55:56;;;;;;;9.10;2.10;;;;;;;;;;4784613;28;20034;-68
2022/01/10 04:58:24;;;;;;;9.95;1.55;;;;;;;;;;4783821;28;20056;-67
2022/01/10 05:00:55;;;;;;;10.32;1.50;;;;;;;;;;4767632;28;20034;-67
2022/01/10 05:03:22;;;;;;;8.13;1.63;;;;;;;;;;4780268;28;20659;-67
2022/01/10 05:05:54;;;;;;;8.00;1.70;;;;;;;;;;4768067;28;20758;-67
2022/01/10 05:08:21;;;;;;;8.65;1.63;;;;;;;;;;4783961;28;20064;-67
2022/01/10 05:10:50;;;;;;;8.80;1.83;;;;;;;;;;4785178;28;20547;-67
2022/01/10 05:13:16;;;;;;;8.20;1.55;;;;;;;;;;4768272;28;21263;-67
2022/01/10 05:15:46;;;;;;;8.68;2.15;;;;;;;;;;4763034;28;20046;-67
2022/01/10 05:18:14;;;;;;;8.68;1.63;;;;;;;;;;4784557;28;20046;-68
2022/01/10 05:20:43;;;;;;;7.55;1.58;;;;;;;;;;4783090;28;20804;-70
2022/01/10 05:23:15;;;;;;;6.78;1.52;;;;;;;;;;4761615;28;20065;-68
2022/01/10 05:25:44;;;;;;;7.43;1.70;;;;;;;;;;4761530;28;20055;-68
2022/01/10 05:28:19;;;;;;;6.35;1.40;;;;;;;;;;4759114;28;20336;-68
2022/01/10 05:30:47;;;;;;;6.78;1.20;;;;;;;;;;4743183;28;20722;-68
2022/01/10 05:33:15;;;;;;;7.95;1.65;;;;;;;;;;4761775;28;20709;-67
2022/01/10 05:35:45;;;;;;;9.35;1.77;;;;;;;;;;4760883;28;20129;-68
2022/01/10 05:38:18;;;;;;;7.93;1.63;;;;;;;;;;4747908;28;20356;-68
2022/01/10 05:40:54;;;;;;;7.25;1.83;;;;;;;;;;4762670;28;21281;-68
2022/01/10 05:43:25;;;;;;;8.13;1.80;;;;;;;;;;4740798;28;20049;-68
2022/01/10 05:45:51;;;;;;;8.55;1.67;;;;;;;;;;4762608;28;20727;-68
2022/01/10 05:48:25;;;;;;;8.70;1.67;;;;;;;;;;4751371;28;20122;-69
2022/01/10 05:50:54;;;;;;;8.50;1.70;;;;;;;;;;4763596;28;20153;-67
2022/01/10 05:53:23;;;;;;;7.47;1.80;;;;;;;;;;4761864;28;20723;-68
2022/01/10 05:55:54;;;;;;;9.25;1.73;;;;;;;;;;4758940;28;21602;-68
2022/01/10 05:58:27;;;;;;;10.48;1.50;;;;;;;;;;4759433;28;20028;-68
2022/01/10 06:00:58;;;;;;;9.30;1.70;;;;;;;;;;4761344;28;20051;-68
2022/01/10 06:03:25;;;;;;;9.70;2.00;;;;;;;;;;4736202;28;20047;-68
2022/01/10 06:05:51;;;;;;;9.48;1.80;;;;;;;;;;4761816;28;20120;-68
2022/01/10 06:08:18;;;;;;;9.10;1.98;;;;;;;;;;4757328;28;21395;-68
2022/01/10 06:10:45;;;;;;;;;;;;;;;;;;4753236;28;21823;-68
2022/01/10 06:13:13;;;;;;;7.40;1.30;;;;;;;;;;4768009;28;19921;-67
2022/01/10 06:15:44;;;;;;;6.20;1.30;;;;;;;;;;4750839;28;20050;-68
2022/01/10 06:18:15;;;;;;;9.35;1.70;;;;;;;;;;4785118;28;20189;-68
2022/01/10 06:20:44;;;;;;;6.38;1.40;;;;;;;;;;4783671;28;20140;-68
2022/01/10 06:23:11;;;;;;;8.15;1.38;;;;;;;;;;4782345;28;20648;-68
2022/01/10 06:25:43;;;;;;;8.70;1.60;;;;;;;;;;4783751;28;20945;-68
2022/01/10 06:28:11;;;;;;;6.57;1.60;;;;;;;;;;4785162;28;20086;-67
2022/01/10 06:30:38;;;;;;;8.30;1.80;;;;;;;;;;4785784;28;20630;-68
2022/01/10 06:33:07;;;;;;;6.47;1.42;;;;;;;;;;4784975;28;20094;-68
2022/01/10 06:35:36;;;;;;;8.68;1.60;;;;;;;;;;4781507;28;21793;-69
2022/01/10 06:38:05;;;;;;;11.13;1.80;;;;;;;;;;4785312;28;20052;-68
2022/01/10 06:40:35;;;;;;;8.55;1.60;;;;;;;;;;4766104;28;20788;-68
2022/01/10 06:43:05;;;;;;;9.20;2.00;;;;;;;;;;4767147;28;21615;-68
2022/01/10 06:45:31;;;;;;;9.15;2.00;;;;;;;;;;4783490;28;20030;-67
2022/01/10 06:48:08;;;;;;;10.18;1.90;;;;;;;;;;4780006;28;20972;-69
2022/01/10 06:50:35;;;;;;;13.40;2.20;;;;;;;;;;4768014;28;20104;-68
2022/01/10 06:53:03;;;;;;;10.95;2.17;;;;;;;;;;4784192;28;20751;-68
2022/01/10 06:55:33;;;;;;;11.15;1.95;;;;;;;;;;4782468;28;20030;-68
2022/01/10 06:58:03;;;;;;;10.38;1.88;;;;;;;;;;4767841;28;20183;-69
2022/01/10 07:00:31;;;;;;;9.25;1.60;;;;;;;;;;4764015;28;20038;-69
2022/01/10 07:03:00;;;;;;;10.73;1.83;;;;;;;;;;4782777;28;20034;-69
2022/01/10 07:05:28;;;;;;;9.93;1.67;;;;;;;;;;4785802;28;20030;-69
2022/01/10 07:07:57;;;;;;;10.18;2.03;;;;;;;;;;4746411;28;20147;-68
2022/01/10 07:10:23;;;;;;;11.15;1.77;;;;;;;;;;4784364;28;20097;-68
2022/01/10 07:12:49;;;;;;;11.90;1.90;;;;;;;;;;4781151;28;20038;-68
2022/01/10 07:15:18;;;;;;;8.18;1.60;;;;;;;;;;4766589;28;21501;-68
2022/01/10 07:17:46;;;;;;;11.32;1.67;;;;;;;;;;4782617;28;20729;-68
2022/01/10 07:20:13;;;;;;;10.38;2.00;;;;;;;;;;4785044;28;20023;-67
2022/01/10 07:22:41;;;;;;;7.78;1.75;;;;;;;;;;4784160;28;20035;-68
2022/01/10 07:25:10;;;;;;;10.43;2.10;;;;;;;;;;4762455;28;20666;-68
2022/01/10 07:27:37;;;;;;;11.35;2.10;;;;;;;;;;4785400;28;22498;-68
2022/01/10 07:30:04;;;;;;;11.10;1.80;;;;;;;;;;4785207;28;20081;-68
2022/01/10 07:32:33;;;;;;;10.32;1.58;;;;;;;;;;4766657;28;20034;-69
2022/01/10 07:35:00;;;;;;;9.65;1.65;;;;;;;;;;4788745;28;20045;-69
2022/01/10 07:37:27;;;;;;;10.15;1.40;;;;;;;;;;4762918;28;20747;-69
2022/01/10 07:39:54;;;;;;;7.95;1.58;;;;;;;;;;4770774;28;20781;-69
2022/01/10 07:42:23;;;;;;;10.52;1.63;;;;;;;;;;4784853;28;20049;-68
2022/01/10 07:44:49;;;;;;;9.73;1.58;;;;;;;;;;4758589;28;20192;-69
2022/01/10 07:47:15;;;;;;;;;;;;;;;;;;4763823;28;20051;-68
2022/01/10 07:49:43;;;;;;;7.13;1.48;;;;;;;;;;4758941;28;20383;-68
2022/01/10 07:52:22;;;;;;;6.90;1.40;;;;;;;;;;4742209;28;20100;-69
2022/01/10 07:54:54;;;;;;;8.68;1.70;;;;;;;;;;4729041;28;20078;-69
2022/01/10 07:57:21;;;;;;;6.88;1.50;;;;;;;;;;4742972;28;20040;-69
2022/01/10 07:59:49;;;;;;;10.57;2.00;;;;;;;;;;4743552;28;20058;-69
2022/01/10 08:02:16;;;;;;;9.30;1.63;;;;;;;;;;4737178;28;20404;-67
2022/01/10 08:04:44;;;;;;;10.18;2.40;;;;;;;;;;4743350;28;20046;-68
2022/01/10 08:07:12;;;;;;;8.05;1.90;;;;;;;;;;4742887;28;20052;-67
2022/01/10 08:09:41;;;;;;;8.63;1.92;;;;;;;;;;4742068;28;20031;-67
2022/01/10 08:12:08;;;;;;;11.13;2.05;;;;;;;;;;4731006;28;21232;-67
2022/01/10 08:14:36;;;;;;;7.60;1.83;;;;;;;;;;4741437;28;20334;-67
2022/01/10 08:17:05;;;;;;;12.07;1.90;;;;;;;;;;4743707;28;20470;-68
2022/01/10 08:19:34;;;;;;;6.82;1.73;;;;;;;;;;4743716;28;20138;-67
2022/01/10 08:22:02;;;;;;;5.88;1.27;;;;;;;;;;4743536;28;20039;-68
2022/01/10 08:24:30;;;;;;;6.45;1.48;;;;;;;;;;4745362;28;22533;-67
2022/01/10 08:26:58;;;;;;;8.52;1.67;;;;;;;;;;4740349;28;20186;-67
2022/01/10 08:29:25;;;;;;;8.23;1.60;;;;;;;;;;4761762;28;20126;-68
2022/01/10 08:31:53;;;;;;;9.02;1.80;;;;;;;;;;4768916;28;20039;-68
2022/01/10 08:34:19;;;;;;;6.07;1.70;;;;;;;;;;4770523;28;21929;-69
2022/01/10 08:36:47;;;;;;;7.80;1.70;;;;;;;;;;4768558;28;20030;-68
2022/01/10 08:39:13;;;;;;;8.35;1.98;;;;;;;;;;4763382;28;20026;-68
2022/01/10 08:41:39;;;;;;;7.35;2.00;;;;;;;;;;4768418;28;21959;-68
2022/01/10 08:44:06;;;;;;;6.32;1.75;;;;;;;;;;4767647;28;20041;-68
2022/01/10 08:46:35;;;;;;;6.05;1.30;;;;;;;;;;4765977;28;20035;-69
2022/01/10 08:49:05;;;;;;;6.40;1.20;;;;;;;;;;4767882;28;20165;-68
2022/01/10 08:51:34;;;;;;;4.43;1.17;;;;;;;;;;4743999;28;20031;-69
2022/01/10 08:54:01;;;;;;;5.20;1.30;;;;;;;;;;4727380;29;20087;-68
2022/01/10 08:56:28;;;;;;;4.68;1.20;;;;;;;;;;4711346;29;20040;-69
2022/01/10 08:58:57;;;;;;;6.28;1.23;;;;;;;;;;4721557;29;20071;-69
2022/01/10 09:01:23;;;;;;;5.13;1.20;;;;;;;;;;4684356;29;20041;-68
2022/01/10 09:03:50;;;;;;;5.25;1.50;;;;;;;;;;4679205;29;21186;-68
2022/01/10 09:06:18;;;;;;;5.35;1.60;;;;;;;;;;4664995;29;20183;-68
2022/01/10 09:08:46;;;;;;;6.57;1.63;;;;;;;;;;4651660;29;20046;-69
2022/01/10 09:11:14;;;;;;;5.20;1.40;;;;;;;;;;4680752;29;20421;-68
2022/01/10 09:13:43;;;;;;;5.35;1.60;;;;;;;;;;4682205;29;20138;-68
2022/01/10 09:16:11;;;;;;;7.68;2.70;;;;;;;;;;4678640;29;22074;-68
2022/01/10 09:18:39;;;;;;;6.60;1.88;;;;;;;;;;4679620;29;20055;-68
2022/01/10 09:21:07;;;;;;;5.18;1.60;;;;;;;;;;4666277;29;20265;-68
2022/01/10 09:23:35;;;;;;;8.02;1.90;;;;;;;;;;4687507;29;20052;-68
2022/01/10 09:26:05;;;;;;;5.53;1.70;;;;;;;;;;4681399;29;20085;-68
2022/01/10 09:28:32;;;;;;;4.90;1.60;;;;;;;;;;4663418;29;20045;-68
2022/01/10 09:30:58;;;;;;;4.65;1.85;;;;;;;;;;4680490;29;20061;-68
2022/01/10 09:33:27;;;;;;;7.93;2.80;;;;;;;;;;4665378;29;20041;-68
2022/01/10 09:35:55;;;;;;;7.40;2.65;;;;;;;;;;4699988;29;20105;-68
2022/01/10 09:38:23;;;;;;;8.02;2.40;;;;;;;;;;4708054;29;20589;-68
2022/01/10 09:40:50;;;;;;;6.25;1.70;;;;;;;;;;4696849;29;20236;-68
2022/01/10 09:43:18;;;;;;;6.32;1.50;;;;;;;;;;4701466;29;21246;-68
2022/01/10 09:45:46;;;;;;;4.43;1.40;;;;;;;;;;4735910;28;20763;-68
2022/01/10 09:48:16;;;;;;;5.97;1.60;;;;;;;;;;4745722;28;20736;-69
2022/01/10 09:50:48;;;;;;;7.35;2.42;;;;;;;;;;4748848;28;20027;-68
2022/01/10 09:53:18;;;;;;;8.93;4.60;;;;;;;;;;4736826;28;20693;-68
2022/01/10 09:55:45;;;;;;;16.25;10.95;;;;;;;;;;4767403;28;20043;-68
2022/01/10 09:58:13;;;;;;;22.08;16.58;;;;;;;;;;4783717;28;21110;-68
2022/01/10 10:00:42;;;;;;;27.95;19.92;;;;;;;;;;4784287;28;20158;-67
2022/01/10 10:03:10;;;;;;;22.90;15.45;;;;;;;;;;4786432;28;20738;-68
2022/01/10 10:05:38;;;;;;;12.02;7.07;;;;;;;;;;4779811;28;21501;-67
2022/01/10 10:08:05;;;;;;;8.45;3.40;;;;;;;;;;4782584;28;20030;-68
2022/01/10 10:10:33;;;;;;;5.82;2.00;;;;;;;;;;4768371;28;20030;-68
2022/01/10 10:13:02;;;;;;;8.35;2.78;;;;;;;;;;4781085;28;20034;-68
2022/01/10 10:15:31;;;;;;;8.75;3.40;;;;;;;;;;4766375;28;20041;-68
2022/01/10 10:18:00;;;;;;;9.10;3.85;;;;;;;;;;4760999;28;20054;-68
2022/01/10 10:20:28;;;;;;;12.60;5.82;;;;;;;;;;4783577;28;20875;-67
2022/01/10 10:22:56;;;;;;;15.98;9.20;;;;;;;;;;4766536;28;20476;-68
2022/01/10 10:25:22;;;;;;;21.95;13.75;;;;;;;;;;4788302;28;21344;-68
2022/01/10 10:27:50;;;;;;;35.42;22.75;;;;;;;;;;4783520;28;20093;-68
2022/01/10 10:30:27;;;;;;;31.60;20.02;;;;;;;;;;4778898;28;20026;-69
2022/01/10 10:32:53;;;;;;;21.80;13.15;;;;;;;;;;4766007;28;20745;-69
2022/01/10 10:35:24;;;;;;;13.15;7.25;;;;;;;;;;4783837;28;20925;-69
2022/01/10 10:37:54;;;;;;;17.33;9.80;;;;;;;;;;4783546;28;20053;-67
2022/01/10 10:40:22;;;;;;;19.17;9.95;;;;;;;;;;4785209;28;20749;-67
2022/01/10 10:42:49;;;;;;;17.73;9.25;;;;;;;;;;4779869;28;20125;-70
2022/01/10 10:45:20;;;;;;;13.30;6.60;;;;;;;;;;4783403;28;20042;-68
2022/01/10 10:47:46;;;;;;;10.63;4.68;;;;;;;;;;4741883;28;20035;-68
2022/01/10 10:50:13;;;;;;;9.98;3.60;;;;;;;;;;4764041;28;20228;-68
2022/01/10 10:52:44;;;;;;;14.32;5.43;;;;;;;;;;4786432;28;20043;-67
2022/01/10 10:55:15;;;;;;;16.38;7.28;;;;;;;;;;4780567;28;20034;-67
2022/01/10 10:57:45;;;;;;;14.60;7.88;;;;;;;;;;4779452;28;20484;-67
2022/01/10 11:00:14;;;;;;;14.85;6.50;;;;;;;;;;4784053;28;20374;-67
2022/01/10 11:02:43;;;;;;;13.57;5.95;;;;;;;;;;4783526;28;20042;-68
2022/01/10 11:05:12;;;;;;;11.90;5.65;;;;;;;;;;4766340;28;20068;-67
2022/01/10 11:07:40;;;;;;;10.82;4.25;;;;;;;;;;4767081;28;20717;-67
2022/01/10 11:10:08;;;;;;;11.88;4.50;;;;;;;;;;4762816;28;21618;-67
2022/01/10 11:12:38;;;;;;;12.07;4.43;;;;;;;;;;4784761;28;20352;-67
2022/01/10 11:15:08;;;;;;;10.13;4.07;;;;;;;;;;4766269;28;20855;-69
2022/01/10 11:17:36;;;;;;;12.77;5.35;;;;;;;;;;4767554;28;20060;-67
2022/01/10 11:20:17;;;;;;;13.80;5.30;;;;;;;;;;4781242;28;20043;-67
2022/01/10 11:22:47;;;;;;;16.67;6.32;;;;;;;;;;4778634;28;20046;-67
2022/01/10 11:25:32;;;;;;;13.50;5.20;;;;;;;;;;4782001;28;20175;-67
2022/01/10 11:28:06;;;;;;;10.95;4.28;;;;;;;;;;4779803;28;20125;-67
2022/01/10 11:30:43;;;;;;;13.68;4.93;;;;;;;;;;4763365;28;20087;-68
2022/01/10 11:33:18;;;;;;;11.68;4.57;;;;;;;;;;4767916;28;20173;-67
2022/01/10 11:35:56;;;;;;;12.75;5.10;;;;;;;;;;4782693;28;20317;-67
2022/01/10 11:38:45;;;;;;;14.10;5.93;;;;;;;;;;4781527;28;20122;-67
2022/01/10 11:41:33;;;;;;;13.00;4.60;;;;;;;;;;4777757;28;20545;-67
2022/01/10 11:44:12;;;;;;;11.05;4.03;;;;;;;;;;4779299;28;20372;-67
2022/01/10 11:46:41;;;;;;;9.75;3.50;;;;;;;;;;4768495;28;20697;-68
2022/01/10 11:49:21;;;;;;;12.52;3.50;;;;;;;;;;4789329;28;20156;-68
2022/01/10 11:51:52;;;;;;;13.55;3.50;;;;;;;;;;4787352;28;20026;-67
2022/01/10 11:54:32;;;;;;;9.40;2.90;;;;;;;;;;4768752;28;20046;-66
2022/01/10 11:57:15;;;;;;;11.85;3.63;;;;;;;;;;4790116;28;20544;-67
2022/01/10 11:59:56;;;;;;;10.10;3.15;;;;;;;;;;4781250;28;20054;-67
2022/01/10 12:02:43;;;;;;;10.48;3.42;;;;;;;;;;4778414;28;20055;-66
2022/01/10 12:05:12;;;;;;;11.23;4.38;;;;;;;;;;4783566;28;20046;-66
2022/01/10 12:07:40;;;;;;;10.25;3.75;;;;;;;;;;4785267;28;20044;-66
2022/01/10 12:10:07;;;;;;;9.57;3.30;;;;;;;;;;4784075;28;21374;-67
2022/01/10 12:12:41;;;;;;;8.18;2.75;;;;;;;;;;4771258;28;20034;-66
2022/01/10 12:15:08;;;;;;;10.27;3.63;;;;;;;;;;4764883;28;20082;-66
2022/01/10 12:17:37;;;;;;;9.68;3.40;;;;;;;;;;4768622;28;20038;-67
2022/01/10 12:20:08;;;;;;;9.30;4.20;;;;;;;;;;4785821;28;20137;-66
2022/01/10 12:22:34;;;;;;;9.25;3.58;;;;;;;;;;4763015;28;20823;-66
2022/01/10 12:25:01;;;;;;;9.00;3.13;;;;;;;;;;4762197;28;20079;-66
2022/01/10 12:27:28;;;;;;;9.30;3.08;;;;;;;;;;4759515;28;20790;-66
2022/01/10 12:29:57;;;;;;;9.05;2.95;;;;;;;;;;4763312;28;20043;-66
2022/01/10 12:32:23;;;;;;;10.25;3.60;;;;;;;;;;4764909;28;20046;-67
2022/01/10 12:34:55;;;;;;;10.80;3.88;;;;;;;;;;4762907;28;20148;-68
2022/01/10 12:37:25;;;;;;;9.55;3.63;;;;;;;;;;4764332;28;20046;-68
2022/01/10 12:39:55;;;;;;;9.75;3.15;;;;;;;;;;4748723;28;20031;-68
2022/01/10 12:42:37;;;;;;;8.82;3.13;;;;;;;;;;4762844;28;20037;-68
2022/01/10 12:45:05;;;;;;;11.23;3.85;;;;;;;;;;4763793;28;20031;-68
2022/01/10 12:47:36;;;;;;;9.43;2.50;;;;;;;;;;4748385;28;20807;-68
2022/01/10 12:50:04;;;;;;;7.32;2.60;;;;;;;;;;4762579;28;20043;-68
2022/01/10 12:52:31;;;;;;;9.70;3.40;;;;;;;;;;4763285;28;20076;-67
2022/01/10 12:54:59;;;;;;;9.25;3.28;;;;;;;;;;4760485;28;21562;-67
2022/01/10 12:57:30;;;;;;;7.82;3.00;;;;;;;;;;4763724;28;20031;-68
2022/01/10 12:59:59;;;;;;;9.73;3.20;;;;;;;;;;4763117;28;20077;-68
2022/01/10 13:02:32;;;;;;;10.48;4.13;;;;;;;;;;4760745;28;20061;-66
2022/01/10 13:05:07;;;;;;;9.23;3.00;;;;;;;;;;4765869;28;20787;-66
2022/01/10 13:07:36;;;;;;;8.43;2.38;;;;;;;;;;4731908;28;20058;-66
2022/01/10 13:10:10;;;;;;;9.40;2.45;;;;;;;;;;4762797;28;20478;-66
2022/01/10 13:12:42;;;;;;;8.35;2.50;;;;;;;;;;4762122;28;20042;-67
2022/01/10 13:15:14;;;;;;;9.13;2.40;;;;;;;;;;4746037;28;20050;-66
2022/01/10 13:17:57;;;;;;;7.38;2.30;;;;;;;;;;4748260;28;20028;-66
2022/01/10 13:20:27;;;;;;;8.32;2.50;;;;;;;;;;4746883;28;20356;-66
2022/01/10 13:23:02;;;;;;;7.65;2.28;;;;;;;;;;4765018;28;20177;-66
2022/01/10 13:25:48;;;;;;;7.93;2.40;;;;;;;;;;4761260;28;20173;-67
2022/01/10 13:28:15;;;;;;;7.85;2.30;;;;;;;;;;4747016;28;20647;-67
2022/01/10 13:30:53;;;;;;;13.75;3.20;;;;;;;;;;4761023;28;20035;-67
2022/01/10 13:33:21;;;;;;;9.38;2.80;;;;;;;;;;4762493;28;20045;-67
2022/01/10 13:36:00;;;;;;;9.88;2.88;;;;;;;;;;4761281;28;20042;-66
2022/01/10 13:38:26;;;;;;;8.77;2.50;;;;;;;;;;4759878;28;20194;-66
2022/01/10 13:41:00;;;;;;;7.88;2.13;;;;;;;;;;4763246;28;20949;-66
2022/01/10 13:43:30;;;;;;;8.13;2.10;;;;;;;;;;4762698;28;20758;-66
2022/01/10 13:46:06;;;;;;;8.90;2.33;;;;;;;;;;4762159;28;20458;-66
2022/01/10 13:48:38;;;;;;;8.45;2.00;;;;;;;;;;4762776;28;20035;-67
2022/01/10 13:51:15;;;;;;;8.32;2.40;;;;;;;;;;4760721;28;20089;-67
2022/01/10 13:53:50;;;;;;;8.68;2.60;;;;;;;;;;4776793;28;20085;-67
2022/01/10 13:56:26;;;;;;;8.30;2.22;;;;;;;;;;4786017;28;21263;-68
2022/01/10 13:58:53;;;;;;;6.15;1.70;;;;;;;;;;4786292;28;20022;-66
2022/01/10 14:01:23;;;;;;;5.88;1.77;;;;;;;;;;4777819;28;20169;-68
2022/01/10 14:03:54;;;;;;;8.10;1.80;;;;;;;;;;4787061;28;20633;-68
2022/01/10 14:06:24;;;;;;;7.50;2.20;;;;;;;;;;4764120;28;20438;-67
2022/01/10 14:08:57;;;;;;;5.82;1.80;;;;;;;;;;4783251;28;20171;-67
2022/01/10 14:11:24;;;;;;;9.07;2.35;;;;;;;;;;4785731;28;20077;-67
2022/01/10 14:13:55;;;;;;;7.78;2.50;;;;;;;;;;4784474;28;20841;-68
2022/01/10 14:16:24;;;;;;;7.10;2.30;;;;;;;;;;4784839;28;20030;-67
2022/01/10 14:18:54;;;;;;;8.50;3.33;;;;;;;;;;4780426;28;20049;-67
2022/01/10 14:21:22;;;;;;;8.10;3.00;;;;;;;;;;4770732;28;20093;-68
2022/01/10 14:23:48;;;;;;;7.78;2.70;;;;;;;;;;4785285;28;20173;-67
2022/01/10 14:26:15;;;;;;;8.20;2.67;;;;;;;;;;4765687;28;20038;-67
2022/01/10 14:28:53;;;;;;;7.00;1.95;;;;;;;;;;4780550;28;20046;-67
2022/01/10 14:31:22;;;;;;;5.68;2.00;;;;;;;;;;4783949;28;20116;-68
2022/01/10 14:33:49;;;;;;;8.88;2.70;;;;;;;;;;4762764;28;20694;-67
2022/01/10 14:36:18;;;;;;;9.68;3.30;;;;;;;;;;4767931;28;20140;-67
2022/01/10 14:38:47;;;;;;;8.35;3.10;;;;;;;;;;4749342;28;20364;-67
2022/01/10 14:41:13;;;;;;;9.02;3.50;;;;;;;;;;4751911;28;20154;-67
2022/01/10 14:43:40;;;;;;;10.40;3.75;;;;;;;;;;4785013;28;20035;-67
2022/01/10 14:46:10;;;;;;;9.25;3.60;;;;;;;;;;4762867;28;20181;-67
2022/01/10 14:48:38;;;;;;;10.73;4.35;;;;;;;;;;4782381;28;20065;-67
2022/01/10 14:51:09;;;;;;;9.50;4.10;;;;;;;;;;4784137;28;20057;-67
2022/01/10 14:53:37;;;;;;;12.25;4.63;;;;;;;;;;4765497;28;20496;-67
2022/01/10 14:56:05;;;;;;;11.90;5.20;;;;;;;;;;4759865;28;20773;-67
2022/01/10 14:58:36;;;;;;;11.23;3.80;;;;;;;;;;4759208;28;20751;-67
2022/01/10 15:01:04;;;;;;;9.00;3.33;;;;;;;;;;4761056;28;20066;-68
2022/01/10 15:03:32;;;;;;;9.85;3.45;;;;;;;;;;4765263;28;20738;-68